Time;durP1;ratioP1;P1;durP2;ratioP2;P2;SDS_P1;SDS_P2;PMS_P1;PMS_P2;Temp;Humidity;BMP_temperature;BMP_pressure;BME280_temperature;BME280_humidity;BME280_pressure;Samples;Min_cycle;Max_cycle;Signal;HPM_P1;HPM_P2
2021/12/05 00:22:37;;;;;;;30.77;17.98;;;;;;;;;;6263423;28;20796;-70
2021/12/05 00:25:46;;;;;;;29.02;18.05;;;;;;;;;;6265601;28;20455;-71
2021/12/05 00:32:16;;;;;;;31.05;19.15;;;;;;;;;;6245323;28;20538;-71
2021/12/05 00:35:48;;;;;;;28.02;18.30;;;;;;;;;;6263576;28;20043;-71
2021/12/05 00:42:42;;;;;;;28.98;17.27;;;;;;;;;;6271483;28;20081;-71
2021/12/05 00:49:32;;;;;;;28.67;18.15;;;;;;;;;;6262735;28;20132;-70
2021/12/05 00:53:14;;;;;;;27.90;17.83;;;;;;;;;;6251859;28;20049;-72
2021/12/05 00:56:30;;;;;;;33.85;19.17;;;;;;;;;;6253907;28;20558;-71
2021/12/05 00:59:59;;;;;;;33.58;18.70;;;;;;;;;;6264525;28;20060;-71
2021/12/05 01:03:32;;;;;;;31.67;17.48;;;;;;;;;;6243938;28;20049;-72
2021/12/05 01:10:14;;;;;;;34.42;20.20;;;;;;;;;;6183803;28;20081;-76
2021/12/05 01:13:31;;;;;;;31.45;19.13;;;;;;;;;;6262647;28;20060;-70
2021/12/05 01:16:33;;;;;;;34.00;19.60;;;;;;;;;;6243578;28;20033;-71
2021/12/05 01:19:36;;;;;;;35.55;21.52;;;;;;;;;;6265469;28;20047;-70
2021/12/05 01:22:43;;;;;;;31.92;20.30;;;;;;;;;;6255843;28;20132;-71
2021/12/05 01:25:50;;;;;;;30.63;19.83;;;;;;;;;;6269670;28;20523;-71
2021/12/05 01:29:13;;;;;;;34.35;21.67;;;;;;;;;;6267465;28;20148;-71
2021/12/05 01:32:23;;;;;;;37.13;22.70;;;;;;;;;;6250845;28;20044;-72
2021/12/05 01:35:42;;;;;;;36.85;22.30;;;;;;;;;;6256585;28;20927;-70
2021/12/05 01:56:08;;;;;;;41.95;24.80;;;;;;;;;;6255970;28;20044;-71
2021/12/05 01:59:25;;;;;;;37.97;23.90;;;;;;;;;;6260234;28;20128;-72
2021/12/05 02:02:56;;;;;;;40.13;23.85;;;;;;;;;;6253512;28;20045;-71
2021/12/05 02:09:36;;;;;;;38.78;23.92;;;;;;;;;;6260708;28;20518;-71
2021/12/05 02:16:15;;;;;;;40.30;23.85;;;;;;;;;;6252241;28;20504;-72
2021/12/05 02:32:57;;;;;;;134.30;60.08;;;;;;;;;;6227902;28;20041;-72
2021/12/05 02:42:39;;;;;;;33.83;20.98;;;;;;;;;;6272733;28;20045;-70
2021/12/05 02:45:47;;;;;;;30.42;19.15;;;;;;;;;;6280769;28;20823;-73
2021/12/05 02:48:48;;;;;;;31.42;19.60;;;;;;;;;;6287811;28;20056;-71
2021/12/05 02:51:55;;;;;;;31.67;18.90;;;;;;;;;;6280989;28;20135;-73
2021/12/05 02:55:03;;;;;;;33.13;20.33;;;;;;;;;;6293492;28;20553;-70
2021/12/05 02:58:15;;;;;;;34.75;20.60;;;;;;;;;;6287711;28;20043;-72
2021/12/05 03:01:22;;;;;;;32.70;19.73;;;;;;;;;;6283736;28;20125;-70
2021/12/05 03:04:26;;;;;;;30.50;18.50;;;;;;;;;;6279955;28;20053;-71
2021/12/05 03:07:37;;;;;;;33.45;19.70;;;;;;;;;;6284270;28;20786;-74
2021/12/05 03:10:40;;;;;;;30.85;18.95;;;;;;;;;;6281480;28;20718;-72
2021/12/05 03:13:42;;;;;;;36.15;21.17;;;;;;;;;;6296757;28;20629;-73
2021/12/05 03:16:45;;;;;;;33.47;20.15;;;;;;;;;;6277905;28;20752;-71
2021/12/05 03:19:46;;;;;;;28.58;18.63;;;;;;;;;;6292255;28;20089;-72
2021/12/05 03:22:48;;;;;;;31.40;19.08;;;;;;;;;;6283002;28;20057;-71
2021/12/05 03:25:52;;;;;;;33.10;20.27;;;;;;;;;;6278753;28;20048;-71
2021/12/05 03:28:55;;;;;;;33.20;19.83;;;;;;;;;;6290774;28;20060;-71
2021/12/05 03:31:58;;;;;;;27.90;18.38;;;;;;;;;;6276994;28;20099;-73
2021/12/05 03:35:00;;;;;;;30.60;19.10;;;;;;;;;;6293349;28;20124;-71
2021/12/05 03:38:02;;;;;;;30.27;19.15;;;;;;;;;;6284709;28;20079;-71
2021/12/05 03:41:05;;;;;;;30.73;19.52;;;;;;;;;;6290881;28;20104;-71
2021/12/05 03:44:09;;;;;;;34.33;19.63;;;;;;;;;;6292510;28;20058;-71
2021/12/05 03:47:11;;;;;;;36.78;18.92;;;;;;;;;;6283014;28;20190;-71
2021/12/05 03:50:13;;;;;;;29.70;18.80;;;;;;;;;;6287604;28;20069;-77
2021/12/05 03:53:16;;;;;;;29.98;19.73;;;;;;;;;;6295953;28;20123;-71
2021/12/05 03:56:20;;;;;;;32.17;20.13;;;;;;;;;;6285779;28;20491;-71
2021/12/05 03:59:22;;;;;;;32.55;19.63;;;;;;;;;;6294070;28;20097;-72
2021/12/05 04:02:23;;;;;;;31.00;18.75;;;;;;;;;;6283398;28;20181;-71
2021/12/05 04:05:25;;;;;;;29.38;18.95;;;;;;;;;;6283493;28;20048;-71
2021/12/05 04:08:29;;;;;;;28.63;18.60;;;;;;;;;;6285957;28;20448;-71
2021/12/05 04:11:37;;;;;;;31.98;18.92;;;;;;;;;;6286328;28;20068;-71
2021/12/05 04:14:41;;;;;;;32.65;19.65;;;;;;;;;;6291395;28;20381;-70
2021/12/05 04:17:43;;;;;;;;;;;;;;;;;;6279892;28;20082;-70
2021/12/05 04:20:44;;;;;;;34.63;21.20;;;;;;;;;;6277776;28;19920;-71
2021/12/05 04:23:47;;;;;;;31.30;19.85;;;;;;;;;;6276867;28;20124;-71
2021/12/05 04:26:50;;;;;;;31.58;20.13;;;;;;;;;;6285000;28;20218;-70
2021/12/05 04:29:52;;;;;;;31.75;20.17;;;;;;;;;;6294969;28;20053;-72
2021/12/05 04:32:54;;;;;;;34.55;21.88;;;;;;;;;;6269887;28;20049;-71
2021/12/05 04:35:56;;;;;;;32.15;20.80;;;;;;;;;;6273213;28;20049;-72
2021/12/05 04:38:58;;;;;;;31.77;20.33;;;;;;;;;;6284936;28;20048;-72
2021/12/05 04:42:01;;;;;;;33.13;20.33;;;;;;;;;;6274979;28;20139;-71
2021/12/05 04:45:04;;;;;;;30.83;19.50;;;;;;;;;;6287809;28;20059;-71
2021/12/05 04:48:07;;;;;;;30.83;19.15;;;;;;;;;;6277960;28;20048;-70
2021/12/05 04:51:09;;;;;;;30.65;18.33;;;;;;;;;;6275980;28;20059;-75
2021/12/05 04:54:12;;;;;;;29.58;18.90;;;;;;;;;;6285966;28;20256;-71
2021/12/05 04:57:15;;;;;;;29.70;18.48;;;;;;;;;;6274947;28;20040;-72
2021/12/05 05:00:21;;;;;;;29.02;18.20;;;;;;;;;;6287763;28;20501;-77
2021/12/05 05:03:23;;;;;;;33.53;19.98;;;;;;;;;;6283550;28;20123;-71
2021/12/05 05:06:24;;;;;;;27.67;18.35;;;;;;;;;;6282078;28;20037;-72
2021/12/05 05:09:26;;;;;;;28.52;18.17;;;;;;;;;;6285105;28;20045;-71
2021/12/05 05:12:29;;;;;;;29.27;18.60;;;;;;;;;;6273664;28;20102;-72
2021/12/05 05:15:31;;;;;;;33.03;19.05;;;;;;;;;;6279672;28;21097;-77
2021/12/05 05:18:40;;;;;;;32.90;20.23;;;;;;;;;;6285418;28;20135;-71
2021/12/05 05:21:48;;;;;;;35.70;20.00;;;;;;;;;;6282045;28;20040;-73
2021/12/05 05:48:33;;;;;;;31.20;18.90;;;;;;;;;;6256991;28;20089;-71
2021/12/05 05:51:35;;;;;;;32.13;18.60;;;;;;;;;;6275032;28;20416;-72
2021/12/05 05:54:36;;;;;;;34.50;19.65;;;;;;;;;;6281287;28;20186;-72
2021/12/05 05:57:42;;;;;;;34.42;19.38;;;;;;;;;;6276962;28;20575;-71
2021/12/05 06:00:52;;;;;;;37.42;21.20;;;;;;;;;;6275965;28;20072;-72
2021/12/05 06:03:54;;;;;;;32.83;20.95;;;;;;;;;;6276041;28;20075;-72
2021/12/05 06:06:55;;;;;;;34.97;21.67;;;;;;;;;;6280726;28;20140;-71
2021/12/05 06:09:57;;;;;;;34.58;20.95;;;;;;;;;;6286986;28;20082;-72
2021/12/05 06:12:59;;;;;;;35.63;21.23;;;;;;;;;;6274888;28;20080;-73
2021/12/05 06:16:03;;;;;;;32.97;21.42;;;;;;;;;;6277693;28;20052;-71
2021/12/05 06:19:04;;;;;;;36.80;21.17;;;;;;;;;;6289148;28;20044;-71
2021/12/05 06:22:06;;;;;;;34.67;22.75;;;;;;;;;;6279799;28;20512;-71
2021/12/05 06:25:13;;;;;;;38.35;24.08;;;;;;;;;;6289671;28;20051;-77
2021/12/05 06:28:16;;;;;;;39.45;22.65;;;;;;;;;;6280280;28;20129;-71
2021/12/05 06:31:27;;;;;;;35.53;22.05;;;;;;;;;;6275640;28;20076;-71
2021/12/05 06:38:00;;;;;;;42.15;22.45;;;;;;;;;;6278389;28;20131;-72
2021/12/05 06:41:10;;;;;;;35.15;22.20;;;;;;;;;;6281385;28;20048;-71
2021/12/05 06:47:32;;;;;;;38.53;22.75;;;;;;;;;;6273357;28;20321;-71
2021/12/05 06:50:34;;;;;;;33.90;20.92;;;;;;;;;;6285904;28;20115;-71
2021/12/05 06:53:36;;;;;;;35.63;21.95;;;;;;;;;;6285676;28;20047;-72
2021/12/05 06:56:37;;;;;;;33.88;20.63;;;;;;;;;;6277964;28;20040;-71
2021/12/05 06:59:41;;;;;;;34.40;20.92;;;;;;;;;;6290183;28;20052;-71
2021/12/05 07:02:44;;;;;;;27.38;16.42;;;;;;;;;;6279077;28;20090;-71
2021/12/05 07:05:52;;;;;;;33.05;20.70;;;;;;;;;;6279944;28;20412;-71
2021/12/05 07:08:57;;;;;;;35.00;22.00;;;;;;;;;;6291865;28;20063;-70
2021/12/05 07:12:26;;;;;;;40.03;21.13;;;;;;;;;;6283721;28;20063;-72
2021/12/05 07:15:33;;;;;;;32.80;20.10;;;;;;;;;;6234424;28;20827;-75
2021/12/05 07:18:43;;;;;;;31.80;20.77;;;;;;;;;;6224699;28;20053;-71
2021/12/05 07:21:49;;;;;;;34.47;21.30;;;;;;;;;;6231895;28;20068;-71
2021/12/05 07:24:59;;;;;;;34.67;20.98;;;;;;;;;;6241951;28;20041;-72
2021/12/05 07:41:36;;;;;;;35.70;21.42;;;;;;;;;;6226506;28;20038;-71
2021/12/05 07:44:38;;;;;;;34.83;22.10;;;;;;;;;;6247714;28;20080;-70
2021/12/05 07:47:44;;;;;;;37.05;23.60;;;;;;;;;;6242865;28;20045;-70
2021/12/05 07:50:55;;;;;;;38.22;23.58;;;;;;;;;;6229139;28;20435;-70
2021/12/05 07:54:14;;;;;;;37.45;22.65;;;;;;;;;;6240296;28;20046;-70
2021/12/05 07:57:20;;;;;;;39.50;23.30;;;;;;;;;;6237878;28;20056;-70
2021/12/05 08:00:30;;;;;;;36.97;22.58;;;;;;;;;;6231556;28;20041;-76
2021/12/05 08:16:53;;;;;;;33.55;21.77;;;;;;;;;;6256039;28;20530;-71
2021/12/05 08:19:54;;;;;;;32.08;21.50;;;;;;;;;;6268196;28;20071;-72
2021/12/05 08:22:59;;;;;;;35.40;22.98;;;;;;;;;;6253866;28;20053;-72
2021/12/05 08:26:08;;;;;;;31.83;21.35;;;;;;;;;;6271680;28;20049;-72
2021/12/05 08:29:13;;;;;;;33.30;23.13;;;;;;;;;;6270485;28;20045;-70
2021/12/05 08:32:26;;;;;;;32.95;22.75;;;;;;;;;;6248108;28;20041;-72
2021/12/05 08:35:50;;;;;;;34.03;22.02;;;;;;;;;;6274280;28;20055;-72
2021/12/05 09:29:55;;;;;;;31.92;22.55;;;;;;;;;;6258545;28;20147;-70
2021/12/05 10:06:42;;;;;;;29.20;21.42;;;;;;;;;;6290428;28;20496;-67
2021/12/05 10:07:02;;;;;;;31.38;22.67;;;;;;;;;;6271128;28;20053;-69
2021/12/05 10:10:25;;;;;;;37.05;22.38;;;;;;;;;;6289138;28;20048;-68
2021/12/05 10:13:33;;;;;;;30.27;22.95;;;;;;;;;;6281618;28;20049;-69
2021/12/05 10:16:52;;;;;;;30.92;23.00;;;;;;;;;;6269368;28;20556;-69
2021/12/05 10:20:21;;;;;;;26.42;21.65;;;;;;;;;;6285071;28;20428;-71
2021/12/05 10:34:02;;;;;;;26.35;22.13;;;;;;;;;;6272598;28;20048;-69
2021/12/05 10:37:10;;;;;;;28.55;22.50;;;;;;;;;;6275019;28;20571;-69
2021/12/05 10:40:16;;;;;;;28.40;21.80;;;;;;;;;;6285297;28;20128;-71
2021/12/05 10:43:23;;;;;;;28.67;22.08;;;;;;;;;;6286438;28;20072;-69
2021/12/05 10:46:26;;;;;;;30.85;23.85;;;;;;;;;;6261944;28;20043;-69
2021/12/05 10:49:32;;;;;;;32.08;22.58;;;;;;;;;;6281356;28;20064;-69
2021/12/05 10:52:35;;;;;;;30.80;23.00;;;;;;;;;;6273496;28;20057;-69
2021/12/05 10:55:36;;;;;;;30.00;23.15;;;;;;;;;;6254600;28;20110;-70
2021/12/05 10:58:44;;;;;;;27.92;22.50;;;;;;;;;;6257844;28;20045;-69
2021/12/05 11:01:48;;;;;;;29.92;23.35;;;;;;;;;;6243927;28;20454;-67
2021/12/05 11:04:50;;;;;;;27.58;21.63;;;;;;;;;;6251532;28;20180;-68
2021/12/05 11:07:53;;;;;;;26.77;22.33;;;;;;;;;;6250678;28;20094;-68
2021/12/05 11:11:06;;;;;;;30.47;24.10;;;;;;;;;;6257179;28;20045;-69
2021/12/05 11:14:10;;;;;;;27.52;22.55;;;;;;;;;;6273718;28;20112;-69
2021/12/05 11:17:14;;;;;;;27.23;21.77;;;;;;;;;;6253105;28;20705;-69
2021/12/05 11:20:28;;;;;;;27.77;21.95;;;;;;;;;;6263582;28;20426;-72
2021/12/05 11:23:31;;;;;;;25.13;20.55;;;;;;;;;;6268940;28;20472;-69
2021/12/05 11:26:33;;;;;;;25.98;20.58;;;;;;;;;;6259974;28;20477;-69
2021/12/05 11:29:43;;;;;;;31.30;22.50;;;;;;;;;;6265868;28;20047;-68
2021/12/05 11:32:49;;;;;;;28.95;22.02;;;;;;;;;;6241536;28;20077;-69
2021/12/05 11:35:54;;;;;;;28.52;21.63;;;;;;;;;;6279271;28;20488;-68
2021/12/05 11:38:57;;;;;;;28.63;22.08;;;;;;;;;;6291710;28;20097;-68
2021/12/05 11:41:59;;;;;;;28.98;21.83;;;;;;;;;;6284799;28;20104;-68
2021/12/05 11:45:05;;;;;;;26.67;21.85;;;;;;;;;;6289664;28;20057;-67
2021/12/05 11:48:18;;;;;;;24.27;20.75;;;;;;;;;;6286592;28;20124;-68
2021/12/05 11:51:28;;;;;;;25.35;21.10;;;;;;;;;;6288237;28;20089;-67
2021/12/05 11:54:32;;;;;;;26.70;20.83;;;;;;;;;;6285986;28;20044;-69
2021/12/05 11:57:36;;;;;;;28.77;21.83;;;;;;;;;;6272172;28;20506;-69
2021/12/05 12:00:38;;;;;;;25.50;21.67;;;;;;;;;;6277335;28;20044;-70
2021/12/05 12:03:40;;;;;;;25.83;20.50;;;;;;;;;;6285606;28;20072;-67
2021/12/05 12:06:47;;;;;;;25.40;21.83;;;;;;;;;;6244883;28;20507;-70
2021/12/05 12:09:53;;;;;;;25.35;21.33;;;;;;;;;;6263050;28;20071;-68
2021/12/05 12:12:56;;;;;;;29.35;20.55;;;;;;;;;;6257105;28;20053;-69
2021/12/05 12:16:00;;;;;;;26.23;20.70;;;;;;;;;;6251688;28;20053;-68
2021/12/05 12:19:07;;;;;;;28.60;21.77;;;;;;;;;;6258013;28;20545;-70
2021/12/05 12:22:09;;;;;;;24.10;20.38;;;;;;;;;;6252971;28;20451;-69
2021/12/05 12:25:17;;;;;;;25.55;21.30;;;;;;;;;;6273290;28;20504;-68
2021/12/05 12:28:19;;;;;;;26.45;20.63;;;;;;;;;;6268664;28;20131;-68
2021/12/05 12:31:25;;;;;;;25.77;21.35;;;;;;;;;;6265037;28;20049;-69
2021/12/05 12:34:27;;;;;;;26.90;20.90;;;;;;;;;;6270015;28;20076;-67
2021/12/05 12:37:29;;;;;;;24.77;21.15;;;;;;;;;;6272132;28;20056;-69
2021/12/05 12:40:45;;;;;;;23.92;20.48;;;;;;;;;;6255333;28;20040;-68
2021/12/05 12:43:52;;;;;;;27.98;21.35;;;;;;;;;;6261228;28;20136;-68
2021/12/05 12:46:57;;;;;;;25.20;20.80;;;;;;;;;;6244410;28;20049;-68
2021/12/05 12:50:24;;;;;;;24.90;20.27;;;;;;;;;;6285588;28;20140;-68
2021/12/05 12:53:29;;;;;;;25.08;19.58;;;;;;;;;;6275245;28;20044;-68
2021/12/05 12:56:33;;;;;;;27.60;20.65;;;;;;;;;;6259554;28;20045;-67
2021/12/05 12:59:39;;;;;;;22.52;19.58;;;;;;;;;;6266837;28;20041;-67
2021/12/05 13:02:57;;;;;;;23.88;19.13;;;;;;;;;;6252427;28;20044;-68
2021/12/05 13:13:19;;;;;;;24.95;18.73;;;;;;;;;;6206560;28;20137;-68
2021/12/05 13:16:27;;;;;;;21.48;18.10;;;;;;;;;;6193427;28;20053;-68
2021/12/05 13:19:28;;;;;;;21.17;17.67;;;;;;;;;;6249252;28;20076;-68
2021/12/05 13:22:30;;;;;;;25.60;18.30;;;;;;;;;;6243503;28;20049;-68
2021/12/05 13:25:36;;;;;;;22.38;17.88;;;;;;;;;;6254570;28;21113;-68
2021/12/05 13:28:40;;;;;;;20.95;17.45;;;;;;;;;;6270963;28;20279;-68
2021/12/05 13:31:54;;;;;;;23.35;17.70;;;;;;;;;;6257439;28;20647;-69
2021/12/05 13:34:56;;;;;;;;;;;;;;;;;;6297747;28;20044;-70
2021/12/05 13:38:00;;;;;;;21.40;16.98;;;;;;;;;;6279120;28;19926;-69
2021/12/05 13:41:13;;;;;;;21.48;17.85;;;;;;;;;;6285223;28;20053;-69
2021/12/05 13:44:16;;;;;;;20.05;15.52;;;;;;;;;;6295524;28;20345;-69
2021/12/05 13:47:18;;;;;;;22.13;16.97;;;;;;;;;;6280011;28;20170;-69
2021/12/05 13:50:34;;;;;;;20.67;18.17;;;;;;;;;;6270539;28;20127;-68
2021/12/05 13:53:49;;;;;;;21.23;17.10;;;;;;;;;;6296638;28;20185;-68
2021/12/05 13:57:07;;;;;;;22.65;16.80;;;;;;;;;;6269789;28;20164;-68
2021/12/05 14:00:39;;;;;;;21.27;16.83;;;;;;;;;;6259604;28;20128;-70
2021/12/05 14:03:56;;;;;;;21.17;17.73;;;;;;;;;;6257536;28;20156;-67
2021/12/05 14:07:01;;;;;;;21.75;17.63;;;;;;;;;;6255508;28;20096;-67
2021/12/05 14:10:04;;;;;;;23.08;17.08;;;;;;;;;;6264048;28;20579;-67
2021/12/05 14:13:06;;;;;;;22.00;17.52;;;;;;;;;;6275987;28;20091;-69
2021/12/05 14:16:09;;;;;;;22.85;16.83;;;;;;;;;;6267668;28;20541;-67
2021/12/05 14:19:13;;;;;;;28.27;17.38;;;;;;;;;;6282976;28;20093;-67
2021/12/05 14:22:17;;;;;;;22.25;16.35;;;;;;;;;;6274036;28;20047;-69
2021/12/05 14:25:23;;;;;;;24.35;16.23;;;;;;;;;;6280536;28;20101;-68
2021/12/05 14:28:25;;;;;;;22.88;16.65;;;;;;;;;;6287201;28;20409;-67
2021/12/05 14:31:29;;;;;;;20.90;15.93;;;;;;;;;;6268322;28;20048;-67
2021/12/05 14:34:31;;;;;;;20.80;15.45;;;;;;;;;;6284405;28;20037;-68
2021/12/05 14:37:33;;;;;;;20.77;16.45;;;;;;;;;;6274670;28;20188;-68
2021/12/05 14:40:37;;;;;;;24.15;16.08;;;;;;;;;;6274076;28;20797;-68
2021/12/05 14:43:39;;;;;;;20.20;15.93;;;;;;;;;;6289918;28;20106;-68
2021/12/05 14:46:51;;;;;;;21.90;15.57;;;;;;;;;;6275824;28;20044;-68
2021/12/05 14:49:56;;;;;;;20.15;15.48;;;;;;;;;;6294323;28;20052;-67
2021/12/05 14:53:02;;;;;;;21.77;15.43;;;;;;;;;;6281068;28;20055;-68
2021/12/05 14:56:04;;;;;;;23.30;16.85;;;;;;;;;;6282270;28;20055;-67
2021/12/05 14:59:08;;;;;;;24.20;16.70;;;;;;;;;;6289597;28;20364;-67
2021/12/05 15:02:11;;;;;;;;;;;;;;;;;;6278119;28;20045;-67
2021/12/05 15:05:15;;;;;;;21.13;16.17;;;;;;;;;;6285940;28;19927;-68
2021/12/05 15:08:20;;;;;;;23.27;17.00;;;;;;;;;;6286148;28;20054;-67
2021/12/05 15:11:21;;;;;;;21.00;16.00;;;;;;;;;;6280856;28;20044;-70
2021/12/05 15:14:24;;;;;;;22.25;16.40;;;;;;;;;;6293290;28;20161;-68
2021/12/05 15:17:28;;;;;;;22.42;15.45;;;;;;;;;;6273417;28;20178;-67
2021/12/05 15:20:32;;;;;;;23.67;16.92;;;;;;;;;;6279512;28;20112;-70
2021/12/05 15:23:40;;;;;;;23.17;17.23;;;;;;;;;;6288619;28;20056;-68
2021/12/05 15:26:41;;;;;;;25.88;19.00;;;;;;;;;;6274768;28;20445;-67
2021/12/05 15:29:47;;;;;;;27.95;18.15;;;;;;;;;;6292641;28;20047;-68
2021/12/05 15:32:53;;;;;;;28.98;19.77;;;;;;;;;;6265828;28;20103;-67
2021/12/05 15:35:58;;;;;;;29.98;20.55;;;;;;;;;;6272810;28;20127;-69
2021/12/05 15:39:11;;;;;;;27.52;19.08;;;;;;;;;;6286022;28;20052;-68
2021/12/05 15:42:17;;;;;;;29.38;19.60;;;;;;;;;;6270407;28;20091;-68
2021/12/05 15:45:20;;;;;;;30.27;20.35;;;;;;;;;;6282305;28;20109;-68
2021/12/05 15:48:24;;;;;;;32.63;20.70;;;;;;;;;;6286373;28;20044;-70
2021/12/05 15:51:26;;;;;;;32.40;21.27;;;;;;;;;;6276397;28;20048;-67
2021/12/05 15:54:27;;;;;;;31.02;21.15;;;;;;;;;;6290130;28;20391;-67
2021/12/05 15:57:33;;;;;;;31.80;21.27;;;;;;;;;;6281054;28;20045;-67
2021/12/05 16:00:38;;;;;;;35.00;21.60;;;;;;;;;;6270611;28;20791;-67
2021/12/05 16:03:43;;;;;;;34.20;21.65;;;;;;;;;;6282053;28;20529;-67
2021/12/05 16:06:45;;;;;;;36.20;22.58;;;;;;;;;;6279590;28;20068;-68
2021/12/05 16:09:47;;;;;;;38.60;24.30;;;;;;;;;;6288195;28;20758;-67
2021/12/05 16:12:50;;;;;;;41.13;25.40;;;;;;;;;;6277603;28;20495;-67
2021/12/05 16:15:54;;;;;;;39.47;26.05;;;;;;;;;;6271443;28;20175;-68
2021/12/05 16:18:59;;;;;;;40.80;25.33;;;;;;;;;;6281237;28;20075;-68
2021/12/05 16:22:02;;;;;;;39.03;25.83;;;;;;;;;;6264904;28;20166;-67
2021/12/05 16:25:17;;;;;;;39.28;25.67;;;;;;;;;;6291867;28;20519;-67
2021/12/05 16:28:24;;;;;;;44.88;26.58;;;;;;;;;;6288405;28;20059;-68
2021/12/05 16:31:30;;;;;;;43.55;28.20;;;;;;;;;;6265903;28;20113;-68
2021/12/05 16:34:36;;;;;;;40.28;26.63;;;;;;;;;;6286700;28;20044;-68
2021/12/05 16:37:39;;;;;;;43.67;27.33;;;;;;;;;;6269564;28;20537;-68
2021/12/05 16:40:53;;;;;;;43.85;27.10;;;;;;;;;;6278302;28;21120;-68
2021/12/05 16:44:05;;;;;;;43.58;27.90;;;;;;;;;;6283210;28;20867;-68
2021/12/05 16:47:11;;;;;;;40.90;27.40;;;;;;;;;;6273290;28;20089;-69
2021/12/05 16:50:22;;;;;;;38.25;26.08;;;;;;;;;;6290260;28;20048;-70
2021/12/05 16:53:34;;;;;;;53.75;33.97;;;;;;;;;;6289331;28;20044;-68
2021/12/05 16:56:40;;;;;;;46.88;29.58;;;;;;;;;;6289034;28;20108;-68
2021/12/05 16:59:45;;;;;;;41.30;26.80;;;;;;;;;;6293111;28;20048;-68
2021/12/05 17:02:52;;;;;;;44.85;26.98;;;;;;;;;;6274511;28;20097;-69
2021/12/05 17:05:59;;;;;;;40.28;25.98;;;;;;;;;;6278104;28;20064;-69
2021/12/05 17:09:10;;;;;;;44.15;27.25;;;;;;;;;;6281914;28;20052;-68
2021/12/05 17:12:27;;;;;;;41.92;25.38;;;;;;;;;;6283087;28;20044;-68
2021/12/05 17:15:30;;;;;;;43.45;27.17;;;;;;;;;;6284043;28;20047;-68
2021/12/05 17:18:35;;;;;;;40.65;25.73;;;;;;;;;;6274307;28;20032;-68
2021/12/05 17:21:40;;;;;;;44.05;27.10;;;;;;;;;;6282013;28;20112;-69
2021/12/05 17:24:43;;;;;;;38.63;25.77;;;;;;;;;;6285010;28;20415;-68
2021/12/05 17:27:46;;;;;;;41.88;26.67;;;;;;;;;;6279880;28;20049;-68
2021/12/05 17:30:55;;;;;;;39.60;27.02;;;;;;;;;;6274130;28;20067;-68
2021/12/05 17:33:59;;;;;;;42.15;25.58;;;;;;;;;;6277941;28;20053;-69
2021/12/05 17:37:04;;;;;;;39.17;25.38;;;;;;;;;;6278514;28;20127;-68
2021/12/05 17:40:07;;;;;;;39.65;26.08;;;;;;;;;;6284795;28;20052;-70
2021/12/05 17:43:09;;;;;;;40.40;26.48;;;;;;;;;;6282260;28;20392;-69
2021/12/05 17:46:11;;;;;;;41.30;26.17;;;;;;;;;;6266522;28;20044;-67
2021/12/05 17:49:15;;;;;;;40.30;26.55;;;;;;;;;;6282922;28;20048;-67
2021/12/05 17:52:20;;;;;;;38.83;25.92;;;;;;;;;;6279470;28;20099;-68
2021/12/05 17:55:27;;;;;;;42.83;26.02;;;;;;;;;;6275238;28;20041;-68
2021/12/05 17:58:49;;;;;;;40.70;25.95;;;;;;;;;;6285649;28;20048;-67
2021/12/05 18:05:17;;;;;;;41.15;26.13;;;;;;;;;;6285412;28;20068;-68
2021/12/05 18:08:22;;;;;;;40.33;24.77;;;;;;;;;;6286772;28;20068;-67
2021/12/05 18:11:25;;;;;;;40.08;25.23;;;;;;;;;;6276690;28;20261;-67
2021/12/05 18:14:26;;;;;;;43.00;26.25;;;;;;;;;;6287337;28;20291;-67
2021/12/05 18:17:28;;;;;;;40.08;25.90;;;;;;;;;;6274234;28;20064;-67
2021/12/05 18:20:32;;;;;;;41.30;26.13;;;;;;;;;;6276333;28;20093;-70
2021/12/05 18:23:36;;;;;;;45.88;26.38;;;;;;;;;;6290393;28;20113;-69
2021/12/05 18:26:38;;;;;;;40.95;25.23;;;;;;;;;;6275495;28;20089;-69
2021/12/05 18:29:40;;;;;;;39.95;25.73;;;;;;;;;;6291543;28;20063;-71
2021/12/05 18:32:42;;;;;;;43.60;25.15;;;;;;;;;;6263184;28;20040;-66
2021/12/05 18:35:44;;;;;;;42.22;25.77;;;;;;;;;;6278079;28;20044;-69
2021/12/05 18:38:48;;;;;;;39.53;25.15;;;;;;;;;;6288413;28;20548;-68
2021/12/05 18:41:50;;;;;;;;;;;;;;;;;;6272992;28;20037;-69
2021/12/05 18:44:59;;;;;;;46.30;26.13;;;;;;;;;;6286842;28;19927;-66
2021/12/05 18:48:01;;;;;;;38.42;24.60;;;;;;;;;;6265571;28;20045;-66
2021/12/05 18:51:04;;;;;;;41.35;25.42;;;;;;;;;;6275421;28;20066;-66
2021/12/05 18:54:07;;;;;;;46.25;26.40;;;;;;;;;;6282322;28;20075;-68
2021/12/05 18:57:10;;;;;;;43.25;26.10;;;;;;;;;;6268918;28;20078;-69
2021/12/05 19:00:24;;;;;;;45.35;27.15;;;;;;;;;;6279626;28;20441;-70
2021/12/05 19:06:49;;;;;;;40.40;26.40;;;;;;;;;;6267412;28;20148;-68
2021/12/05 19:13:07;;;;;;;43.55;26.55;;;;;;;;;;6266661;28;20152;-69
2021/12/05 19:16:10;;;;;;;43.00;27.02;;;;;;;;;;6265969;28;20149;-69
2021/12/05 19:19:11;;;;;;;39.55;26.58;;;;;;;;;;6290505;28;20202;-68
2021/12/05 19:22:17;;;;;;;46.95;26.55;;;;;;;;;;6272056;28;20122;-69
2021/12/05 19:25:23;;;;;;;43.47;27.80;;;;;;;;;;6278415;28;20488;-69
2021/12/05 19:28:25;;;;;;;45.53;26.27;;;;;;;;;;6292961;28;20048;-66
2021/12/05 19:31:27;;;;;;;39.35;26.40;;;;;;;;;;6286621;28;20119;-67
2021/12/05 19:34:29;;;;;;;41.97;27.00;;;;;;;;;;6291016;28;20447;-67
2021/12/05 19:37:32;;;;;;;44.65;26.55;;;;;;;;;;6273470;28;20098;-66
2021/12/05 19:40:35;;;;;;;42.75;27.02;;;;;;;;;;6282998;28;20158;-67
2021/12/05 19:43:38;;;;;;;38.25;25.95;;;;;;;;;;6301512;28;20085;-67
2021/12/05 19:46:40;;;;;;;48.00;27.33;;;;;;;;;;6272579;28;20052;-68
2021/12/05 19:49:41;;;;;;;43.15;27.33;;;;;;;;;;6292985;28;20146;-67
2021/12/05 19:52:43;;;;;;;43.95;27.55;;;;;;;;;;6293251;28;20032;-67
2021/12/05 19:55:46;;;;;;;44.53;26.92;;;;;;;;;;6298180;28;20617;-67
2021/12/05 19:58:48;;;;;;;43.50;25.58;;;;;;;;;;6298584;28;20699;-70
2021/12/05 20:01:52;;;;;;;44.08;26.27;;;;;;;;;;6274907;28;20091;-67
2021/12/05 20:04:53;;;;;;;42.78;25.95;;;;;;;;;;6305803;28;20060;-67
2021/12/05 20:07:56;;;;;;;45.10;25.60;;;;;;;;;;6284236;28;20056;-68
2021/12/05 20:10:59;;;;;;;43.08;26.40;;;;;;;;;;6284910;28;20053;-68
2021/12/05 20:14:01;;;;;;;40.50;26.98;;;;;;;;;;6296458;28;20052;-67
2021/12/05 20:17:03;;;;;;;42.70;26.77;;;;;;;;;;6273669;28;20181;-69
2021/12/05 20:20:08;;;;;;;41.15;26.75;;;;;;;;;;6287212;28;20583;-71
2021/12/05 20:23:12;;;;;;;41.53;26.13;;;;;;;;;;6291083;28;20056;-69
2021/12/05 20:26:18;;;;;;;44.87;28.33;;;;;;;;;;6282481;28;20067;-69
2021/12/05 20:29:21;;;;;;;43.75;26.75;;;;;;;;;;6294056;28;20139;-68
2021/12/05 20:32:22;;;;;;;42.50;26.92;;;;;;;;;;6272038;28;20036;-69
2021/12/05 20:35:25;;;;;;;43.85;26.35;;;;;;;;;;6279211;28;20129;-69
2021/12/05 20:38:26;;;;;;;41.22;27.58;;;;;;;;;;6291416;28;20048;-69
2021/12/05 20:41:29;;;;;;;44.17;26.23;;;;;;;;;;6282793;28;20058;-69
2021/12/05 20:44:32;;;;;;;42.35;27.05;;;;;;;;;;6293589;28;20127;-69
2021/12/05 20:47:33;;;;;;;45.03;27.40;;;;;;;;;;6276680;28;20841;-68
2021/12/05 20:50:37;;;;;;;47.05;28.65;;;;;;;;;;6283212;28;20087;-67
2021/12/05 20:53:39;;;;;;;44.43;26.83;;;;;;;;;;6289348;28;20715;-68
2021/12/05 20:56:42;;;;;;;44.95;26.50;;;;;;;;;;6279755;28;20455;-69
2021/12/05 20:59:44;;;;;;;46.35;27.45;;;;;;;;;;6296023;28;20055;-67
2021/12/05 21:02:46;;;;;;;43.75;26.63;;;;;;;;;;6278365;28;20087;-67
2021/12/05 21:05:50;;;;;;;41.97;27.92;;;;;;;;;;6278922;28;20488;-68
2021/12/05 21:08:51;;;;;;;48.42;28.25;;;;;;;;;;6296944;28;20040;-68
2021/12/05 21:11:54;;;;;;;48.08;28.42;;;;;;;;;;6281907;28;20141;-68
2021/12/05 21:14:56;;;;;;;41.33;27.80;;;;;;;;;;6300412;28;20483;-68
2021/12/05 21:17:58;;;;;;;43.50;29.02;;;;;;;;;;6278057;28;20051;-68
2021/12/05 21:21:07;;;;;;;44.53;29.27;;;;;;;;;;6280231;28;20096;-69
2021/12/05 21:24:09;;;;;;;46.40;29.70;;;;;;;;;;6294431;28;20052;-69
2021/12/05 21:27:12;;;;;;;52.22;31.13;;;;;;;;;;6285257;28;20065;-69
2021/12/05 21:30:18;;;;;;;50.22;31.75;;;;;;;;;;6283944;28;20151;-70
2021/12/05 21:33:20;;;;;;;45.33;30.27;;;;;;;;;;6277018;28;20040;-69
2021/12/05 21:36:22;;;;;;;49.75;32.05;;;;;;;;;;6277543;28;20094;-68
2021/12/05 21:39:24;;;;;;;49.17;30.10;;;;;;;;;;6293293;28;20040;-67
2021/12/05 21:42:27;;;;;;;50.38;30.55;;;;;;;;;;6282063;28;20097;-67
2021/12/05 21:45:29;;;;;;;51.78;30.95;;;;;;;;;;6278473;28;20040;-70
2021/12/05 21:48:30;;;;;;;49.10;31.15;;;;;;;;;;6281783;28;20044;-68
2021/12/05 21:51:33;;;;;;;44.95;30.13;;;;;;;;;;6289752;28;20613;-68
2021/12/05 21:54:34;;;;;;;50.47;31.65;;;;;;;;;;6294156;28;20091;-67
2021/12/05 21:57:37;;;;;;;46.72;29.25;;;;;;;;;;6286467;28;20094;-68
2021/12/05 22:00:43;;;;;;;50.72;31.27;;;;;;;;;;6273530;28;20091;-68
2021/12/05 22:03:45;;;;;;;48.33;30.90;;;;;;;;;;6298150;28;20044;-67
2021/12/05 22:06:46;;;;;;;46.30;30.90;;;;;;;;;;6282328;28;20072;-67
2021/12/05 22:09:48;;;;;;;50.17;30.10;;;;;;;;;;6289804;28;20209;-68